Time;durP1;ratioP1;P1;durP2;ratioP2;P2;SDS_P1;SDS_P2;PMS_P1;PMS_P2;Temp;Humidity;BMP_temperature;BMP_pressure;BME280_temperature;BME280_humidity;BME280_pressure;Samples;Min_cycle;Max_cycle;Signal;HPM_P1;HPM_P2
2023/01/10 00:00:05;;;;;;;;;0.00;0.00;;;;;21.45;44.63;101651.00;5076221;28;45448;-72
2023/01/10 00:02:30;;;;;;;;;1.00;1.00;;;;;21.46;44.72;101654.47;5076541;28;45294;-72
2023/01/10 00:04:55;;;;;;;;;1.33;0.67;;;;;21.42;45.05;101659.25;5076264;28;45946;-73
2023/01/10 00:07:21;;;;;;;;;1.67;1.00;;;;;21.45;45.07;101663.41;5076439;28;45213;-72
2023/01/10 00:09:46;;;;;;;;;1.00;1.00;;;;;21.43;45.04;101668.88;5076475;28;45308;-72
2023/01/10 00:14:55;;;;;;;;;3.00;1.00;;;;;21.44;44.80;101665.25;5075894;28;45857;-72
2023/01/10 00:17:21;;;;;;;;;0.00;0.00;;;;;;;;5075820;27;46469;-72
2023/01/10 00:19:46;;;;;;;;;3.00;1.00;;;;;21.44;44.62;101691.72;5076399;28;45245;-73
2023/01/10 00:22:11;;;;;;;;;1.00;0.67;;;;;21.44;44.96;101688.22;5076352;28;45387;-72
2023/01/10 00:24:37;;;;;;;;;0.00;0.00;;;;;21.43;44.57;101700.63;5076012;27;45326;-72
2023/01/10 00:27:03;;;;;;;;;0.00;0.00;;;;;21.44;44.95;101698.81;5076135;28;45220;-72
2023/01/10 00:29:32;;;;;;;;;0.00;0.00;;;;;21.45;44.92;101689.88;5075813;28;45227;-72
2023/01/10 00:31:58;;;;;;;;;1.33;0.33;;;;;21.44;44.42;101686.41;5076329;28;45426;-72
2023/01/10 00:34:23;;;;;;;;;3.00;1.33;;;;;21.45;44.81;101689.88;5075802;28;46131;-72
2023/01/10 00:36:49;;;;;;;;;0.67;0.67;;;;;21.36;44.51;101673.97;5075874;28;45329;-72
2023/01/10 00:39:17;;;;;;;;;1.00;0.00;;;;;21.45;44.47;101676.63;5076358;28;45375;-72
2023/01/10 00:44:27;;;;;;;;;2.00;1.00;;;;;21.36;45.02;101666.03;5075380;28;45394;-72
2023/01/10 00:46:53;;;;;;;;;0.33;0.33;;;;;21.44;44.97;101689.06;5075673;28;45335;-72
2023/01/10 00:49:18;;;;;;;;;0.33;0.33;;;;;21.45;44.53;101701.31;5076050;27;45334;-72
2023/01/10 00:51:44;;;;;;;;;0.33;0.33;;;;;;;;5076117;28;45309;-72
2023/01/10 00:54:10;;;;;;;;;0.00;0.00;;;;;21.45;44.43;101697.81;5075936;28;47145;-72
2023/01/10 00:56:35;;;;;;;;;1.67;1.00;;;;;21.44;44.35;101707.59;5075577;28;45351;-72
2023/01/10 00:59:01;;;;;;;;;2.00;1.00;;;;;21.44;44.38;101718.19;5075318;27;45327;-72
2023/01/10 01:01:26;;;;;;;;;0.00;0.00;;;;;21.44;44.90;101715.53;5075732;28;45315;-72
2023/01/10 01:03:51;;;;;;;;;0.33;0.33;;;;;21.44;44.56;101714.69;5075849;28;45434;-72
2023/01/10 01:06:17;;;;;;;;;0.67;0.67;;;;;21.43;44.57;101716.50;5075495;28;45355;-72
2023/01/10 01:08:42;;;;;;;;;1.00;1.00;;;;;;;;5075776;28;45424;-72
2023/01/10 01:11:07;;;;;;;;;4.00;0.00;;;;;21.42;44.50;101730.72;5079189;28;45447;-72
2023/01/10 01:13:33;;;;;;;;;1.00;0.00;;;;;21.39;44.83;101737.16;5078520;28;47188;-73
2023/01/10 01:15:59;;;;;;;;;0.00;0.00;;;;;21.39;44.85;101747.75;5079061;28;45432;-72
2023/01/10 01:18:26;;;;;;;;;1.33;0.00;;;;;21.40;44.74;101760.00;5079027;28;45363;-72
2023/01/10 01:20:55;;;;;;;;;1.67;0.33;;;;;21.39;44.84;101758.34;5079076;28;45584;-72
2023/01/10 01:23:22;;;;;;;;;2.00;1.00;;;;;21.38;44.60;101759.34;5078686;28;45968;-72
2023/01/10 01:25:51;;;;;;;;;0.00;0.00;;;;;21.36;44.27;101765.78;5078863;28;45551;-72
2023/01/10 01:28:17;;;;;;;;;2.00;0.00;;;;;21.37;44.28;101770.91;5078684;27;45395;-72
2023/01/10 01:30:42;;;;;;;;;1.33;1.00;;;;;21.38;44.34;101771.75;5078835;27;45297;-72
2023/01/10 01:33:08;;;;;;;;;0.00;0.00;;;;;21.39;44.62;101778.72;5078823;28;45339;-72
2023/01/10 01:35:33;;;;;;;;;2.00;1.00;;;;;21.26;44.22;101753.44;5078988;28;45271;-72
2023/01/10 01:37:59;;;;;;;;;0.67;0.67;;;;;21.38;44.50;101771.75;5078755;27;45433;-72
2023/01/10 01:40:24;;;;;;;;;5.67;1.00;;;;;21.37;44.58;101762.97;5078848;28;45377;-72
2023/01/10 01:42:54;;;;;;;;;0.00;0.00;;;;;21.25;44.86;101741.22;5078397;28;46791;-72
2023/01/10 01:45:22;;;;;;;;;0.67;0.00;;;;;21.36;44.64;101753.38;5078589;27;45360;-72
2023/01/10 01:48:06;;;;;;;;;2.00;1.00;;;;;21.36;44.46;101756.03;5078705;28;45289;-72
2023/01/10 01:50:38;;;;;;;;;0.67;0.67;;;;;21.36;44.54;101755.19;5078384;27;45360;-72
2023/01/10 01:53:11;;;;;;;;;0.00;0.00;;;;;21.36;44.72;101757.84;5078283;27;47191;-72
2023/01/10 01:55:38;;;;;;;;;2.00;0.00;;;;;21.35;44.57;101759.63;5078374;27;45388;-72
2023/01/10 01:58:12;;;;;;;;;0.00;0.00;;;;;21.36;44.27;101765.78;5078009;27;45390;-72
2023/01/10 02:00:37;;;;;;;;;1.00;1.00;;;;;21.36;44.27;101774.56;5078399;27;45472;-72
2023/01/10 02:03:04;;;;;;;;;2.00;0.67;;;;;21.36;44.56;101771.06;5078142;28;45490;-72
2023/01/10 02:05:33;;;;;;;;;2.67;1.00;;;;;21.26;44.16;101760.56;5078464;28;45382;-72
2023/01/10 02:08:01;;;;;;;;;1.33;0.33;;;;;21.33;44.08;101776.66;5077266;28;45379;-72
2023/01/10 02:10:58;;;;;;;;;0.00;0.00;;;;;21.36;44.60;101785.13;5077836;28;45450;-72
2023/01/10 02:13:26;;;;;;;;;1.00;1.00;;;;;21.36;44.45;101792.25;5078070;27;46278;-72
2023/01/10 02:15:51;;;;;;;;;1.67;0.00;;;;;21.36;44.16;101800.19;5078082;28;45397;-72
2023/01/10 02:18:17;;;;;;;;;1.00;1.00;;;;;21.29;44.10;101784.06;5078036;27;45352;-72
2023/01/10 02:20:56;;;;;;;;;0.67;0.00;;;;;21.37;44.30;101807.97;5077383;28;45234;-72
2023/01/10 02:23:56;;;;;;;;;1.33;0.00;;;;;21.37;44.23;101815.91;5078101;28;45396;-72
2023/01/10 02:27:00;;;;;;;;;2.00;1.00;;;;;21.23;44.33;101793.47;4994575;28;45325;-72
2023/01/10 02:29:50;;;;;;;;;0.67;0.67;;;;;21.37;44.59;101818.56;4995840;28;45366;-72
2023/01/10 02:32:24;;;;;;;;;3.00;1.00;;;;;21.37;44.15;101823.84;4995634;28;45461;-73
2023/01/10 02:35:14;;;;;;;;;1.67;1.00;;;;;21.38;44.14;101814.09;4995374;28;46196;-72
2023/01/10 02:38:14;;;;;;;;;0.00;0.00;;;;;21.37;44.28;101809.78;4995379;28;45402;-72
2023/01/10 02:41:14;;;;;;;;;3.00;1.00;;;;;21.35;44.29;101809.94;4995264;28;45357;-72
2023/01/10 02:44:24;;;;;;;;;1.00;1.00;;;;;21.35;44.00;101812.59;4995077;28;45540;-73
2023/01/10 02:46:50;;;;;;;;;3.00;0.00;;;;;21.35;44.46;101817.88;4917326;28;45444;-72
2023/01/10 02:49:16;;;;;;;;;1.00;1.00;;;;;21.35;44.46;101823.16;4917281;28;45571;-72
2023/01/10 02:51:41;;;;;;;;;3.00;0.33;;;;;21.34;44.08;101824.16;4917637;28;45621;-72
2023/01/10 02:54:22;;;;;;;;;0.00;0.00;;;;;21.26;44.19;101810.84;4917437;28;45330;-72
2023/01/10 02:56:50;;;;;;;;;1.33;1.00;;;;;21.33;43.91;101830.44;4935683;28;46466;-72
2023/01/10 02:59:40;;;;;;;;;0.00;0.00;;;;;21.34;43.91;101833.94;4936658;28;45423;-72
2023/01/10 03:02:40;;;;;;;;;1.00;1.00;;;;;21.33;44.19;101837.53;4936401;28;45385;-72
2023/01/10 03:05:27;;;;;;;;;1.33;0.00;;;;;21.33;43.99;101829.59;4994891;28;45436;-72
2023/01/10 03:07:59;;;;;;;;;2.00;1.00;;;;;21.31;44.02;101839.50;4994812;28;47112;-72
2023/01/10 03:10:36;;;;;;;;;1.00;1.00;;;;;21.32;44.03;101833.22;4994437;28;45360;-72
2023/01/10 03:13:06;;;;;;;;;0.00;0.00;;;;;21.32;44.24;101830.56;4995028;28;46111;-72
2023/01/10 03:15:35;;;;;;;;;0.00;0.00;;;;;21.29;44.13;101824.59;4994967;28;45310;-72
2023/01/10 03:18:05;;;;;;;;;2.33;2.00;;;;;21.29;44.45;101829.91;4994381;28;46072;-72
2023/01/10 03:20:33;;;;;;;;;1.00;1.00;;;;;21.31;43.98;101836.88;4994794;28;45461;-72
2023/01/10 03:23:04;;;;;;;;;1.00;1.00;;;;;21.31;44.39;101834.22;5008098;28;45334;-72
2023/01/10 03:25:34;;;;;;;;;2.67;0.00;;;;;21.31;43.87;101842.16;5056922;28;45456;-72
2023/01/10 03:28:07;;;;;;;;;1.00;1.00;;;;;21.31;44.15;101840.34;5056556;28;47353;-72
2023/01/10 03:30:43;;;;;;;;;1.00;1.00;;;;;21.31;44.31;101834.22;5056819;28;45305;-72
2023/01/10 03:33:12;;;;;;;;;0.00;0.00;;;;;21.29;44.00;101835.19;5056387;28;45260;-72
2023/01/10 03:35:49;;;;;;;;;1.33;0.67;;;;;21.31;44.12;101827.13;5056712;28;45413;-72
2023/01/10 03:38:22;;;;;;;;;1.00;1.00;;;;;21.29;44.29;101823.75;5055865;28;46303;-72
2023/01/10 03:41:02;;;;;;;;;2.00;1.00;;;;;21.29;44.05;101832.53;5056387;28;45396;-72
2023/01/10 03:46:40;;;;;;;;;2.00;0.33;;;;;21.26;44.04;101821.44;5056207;28;45372;-73
2023/01/10 03:49:09;;;;;;;;;1.67;0.00;;;;;21.24;44.16;101811.00;5062173;27;46168;-72
2023/01/10 03:51:37;;;;;;;;;1.00;0.00;;;;;21.22;44.15;101815.59;5076524;28;45407;-72
2023/01/10 03:54:03;;;;;;;;;0.00;0.00;;;;;21.20;44.19;101808.81;5076476;28;45460;-72
2023/01/10 03:56:28;;;;;;;;;2.00;0.33;;;;;21.28;43.73;101824.78;5076316;28;45474;-73
2023/01/10 03:58:54;;;;;;;;;1.33;0.67;;;;;21.20;44.03;101812.28;5076481;28;46177;-72
2023/01/10 04:01:19;;;;;;;;;2.00;0.33;;;;;21.27;43.67;101826.56;5076221;28;45451;-72
2023/01/10 04:03:44;;;;;;;;;2.67;1.00;;;;;21.29;43.73;101839.66;5076679;28;45360;-72
2023/01/10 04:06:10;;;;;;;;;0.33;0.33;;;;;21.29;43.53;101837.00;5076571;28;45345;-72
2023/01/10 04:08:35;;;;;;;;;1.33;1.00;;;;;21.29;43.51;101845.78;5057776;28;48079;-72
2023/01/10 04:11:00;;;;;;;;;0.00;0.00;;;;;21.31;43.88;101844.81;5076516;28;45480;-72
2023/01/10 04:13:26;;;;;;;;;1.33;0.00;;;;;21.30;44.15;101859.84;5076551;28;45271;-72
2023/01/10 04:15:51;;;;;;;;;0.33;0.00;;;;;21.32;43.53;101849.94;5076511;28;45269;-71
2023/01/10 04:18:18;;;;;;;;;1.33;0.00;;;;;21.29;44.03;101839.66;5076037;27;45978;-72
2023/01/10 04:20:43;;;;;;;;;0.33;0.00;;;;;21.31;43.53;101834.22;5076152;27;45415;-72
2023/01/10 04:23:08;;;;;;;;;0.00;0.00;;;;;21.33;44.00;101834.91;5057536;28;45340;-72
2023/01/10 04:25:34;;;;;;;;;0.33;0.33;;;;;21.33;43.26;101826.97;5076487;28;45304;-72
2023/01/10 04:27:59;;;;;;;;;0.33;0.00;;;;;21.32;43.53;101826.13;5076148;28;45915;-72
2023/01/10 04:30:24;;;;;;;;;1.00;1.00;;;;;21.29;43.72;101818.47;5075984;28;45377;-72
2023/01/10 04:32:50;;;;;;;;;3.00;1.00;;;;;21.33;43.52;101819.00;5076256;28;45336;-72
2023/01/10 04:35:15;;;;;;;;;0.33;0.33;;;;;21.33;43.86;101824.31;5075787;28;45264;-73
2023/01/10 04:37:41;;;;;;;;;0.00;0.00;;;;;21.33;43.99;101817.19;5075891;28;47148;-72
2023/01/10 04:40:07;;;;;;;;;2.00;0.00;;;;;21.34;43.67;101815.41;5076344;28;45459;-72
2023/01/10 04:42:33;;;;;;;;;1.00;1.00;;;;;21.34;43.95;101812.75;5076020;28;45417;-72
2023/01/10 04:44:58;;;;;;;;;2.00;0.33;;;;;21.34;43.79;101818.03;5077477;28;45502;-72
2023/01/10 04:47:23;;;;;;;;;1.00;1.00;;;;;21.34;43.72;101818.03;5079475;27;46285;-72
2023/01/10 04:49:49;;;;;;;;;0.00;0.00;;;;;21.31;43.58;101815.69;5079082;27;45356;-72
2023/01/10 04:52:14;;;;;;;;;0.00;0.00;;;;;21.33;44.00;101817.19;5079550;28;45395;-72
2023/01/10 04:54:40;;;;;;;;;0.00;0.00;;;;;21.26;44.01;101797.63;5079738;28;45406;-72
2023/01/10 04:57:05;;;;;;;;;2.00;2.00;;;;;21.34;43.76;101802.16;5079332;28;45443;-73
2023/01/10 04:59:31;;;;;;;;;1.67;0.00;;;;;21.33;43.70;101798.69;5079413;28;45340;-72
2023/01/10 05:01:56;;;;;;;;;0.00;0.00;;;;;21.33;43.56;101795.19;5079246;28;45428;-72
2023/01/10 05:04:22;;;;;;;;;0.00;0.00;;;;;21.33;43.49;101796.03;5079013;28;45305;-72
2023/01/10 05:06:48;;;;;;;;;2.00;1.00;;;;;21.32;43.70;101796.16;5079050;28;47687;-72
2023/01/10 05:09:13;;;;;;;;;0.00;0.00;;;;;21.32;43.76;101782.94;5079163;28;45289;-72
2023/01/10 05:11:39;;;;;;;;;2.33;1.00;;;;;21.31;43.25;101781.28;5079230;28;45416;-72
2023/01/10 05:14:04;;;;;;;;;0.00;0.00;;;;;21.29;43.78;101779.59;5079417;28;45398;-72
2023/01/10 05:16:30;;;;;;;;;0.67;0.00;;;;;21.24;43.77;101766.00;5078746;28;46134;-72
2023/01/10 05:18:55;;;;;;;;;0.00;0.00;;;;;21.26;43.66;101768.50;5077412;28;45353;-72
2023/01/10 05:21:20;;;;;;;;;1.00;1.00;;;;;21.29;43.94;101770.81;5079265;28;45393;-72
2023/01/10 05:23:46;;;;;;;;;0.67;0.00;;;;;21.28;43.63;101783.25;5079134;28;45297;-72
2023/01/10 05:26:17;;;;;;;;;2.00;1.00;;;;;21.24;43.37;101773.94;5078815;28;46374;-73
2023/01/10 05:28:43;;;;;;;;;0.00;0.00;;;;;21.27;43.76;101776.28;5079052;27;45446;-72
2023/01/10 05:31:13;;;;;;;;;0.00;0.00;;;;;21.27;43.54;101784.22;5078910;27;45317;-72
2023/01/10 05:33:38;;;;;;;;;1.33;0.33;;;;;21.27;43.90;101775.44;5078360;28;45431;-72
2023/01/10 05:36:05;;;;;;;;;0.33;0.00;;;;;21.26;43.58;101769.31;5078716;28;46124;-72
2023/01/10 05:38:31;;;;;;;;;3.00;1.00;;;;;21.15;43.36;101743.94;5078701;28;45439;-72
2023/01/10 05:40:58;;;;;;;;;1.00;1.00;;;;;21.26;43.33;101764.03;5078909;28;45248;-72
2023/01/10 05:43:24;;;;;;;;;1.33;1.00;;;;;21.26;43.37;101761.38;5078777;27;45580;-72
2023/01/10 05:45:50;;;;;;;;;0.00;0.00;;;;;21.15;43.69;101735.16;5060246;28;47082;-72
2023/01/10 05:48:16;;;;;;;;;1.67;1.00;;;;;21.26;43.35;101752.63;5078194;28;45508;-72
2023/01/10 05:50:41;;;;;;;;;0.67;0.67;;;;;21.25;43.69;101756.25;5078525;27;45435;-72
2023/01/10 05:53:06;;;;;;;;;2.33;0.00;;;;;21.26;43.53;101757.91;5078623;27;45361;-72
2023/01/10 05:55:32;;;;;;;;;1.00;0.00;;;;;21.18;43.56;101746.25;5078132;27;45383;-72
2023/01/10 05:57:58;;;;;;;;;2.00;1.00;;;;;21.23;43.86;101759.06;5078232;27;45397;-72
2023/01/10 06:00:24;;;;;;;;;0.00;0.00;;;;;21.25;43.89;101766.84;5078421;28;45293;-72
2023/01/10 06:02:49;;;;;;;;;1.00;1.00;;;;;21.26;43.68;101771.16;5077956;28;45339;-72
2023/01/10 06:05:14;;;;;;;;;1.00;1.00;;;;;21.22;43.54;101767.97;5078321;28;47415;-72
2023/01/10 06:07:40;;;;;;;;;0.00;0.00;;;;;21.23;43.36;101760.88;5078271;28;45356;-72
2023/01/10 06:10:05;;;;;;;;;0.00;0.00;;;;;21.25;43.81;101764.19;5078288;28;45363;-73
2023/01/10 06:12:31;;;;;;;;;0.67;0.67;;;;;21.25;43.59;101758.91;5078194;28;45273;-72
2023/01/10 06:14:56;;;;;;;;;0.00;0.00;;;;;21.26;43.42;101757.91;5078170;28;45293;-72
2023/01/10 06:17:21;;;;;;;;;3.00;1.00;;;;;21.16;43.63;101748.22;5077775;28;45372;-72
2023/01/10 06:19:47;;;;;;;;;3.67;2.00;;;;;21.18;43.85;101754.19;5078051;28;45411;-72
2023/01/10 06:22:12;;;;;;;;;1.00;1.00;;;;;21.26;43.32;101760.56;5077996;27;45303;-72
2023/01/10 06:24:37;;;;;;;;;2.00;0.00;;;;;21.27;43.18;101754.28;5078121;27;45959;-72
2023/01/10 06:27:03;;;;;;;;;1.00;1.00;;;;;21.26;43.29;101753.44;5076891;28;45269;-75
2023/01/10 06:29:28;;;;;;;;;0.00;0.00;;;;;21.18;43.22;101729.56;5078098;28;45287;-73
2023/01/10 06:31:53;;;;;;;;;0.67;0.67;;;;;21.27;43.71;101741.03;5077760;28;45334;-71
2023/01/10 06:34:19;;;;;;;;;0.67;0.00;;;;;21.27;43.36;101738.41;5077546;28;46950;-71
2023/01/10 06:36:44;;;;;;;;;0.67;0.67;;;;;21.27;43.55;101743.69;5077689;28;45367;-72
2023/01/10 06:39:09;;;;;;;;;0.33;0.33;;;;;21.27;43.62;101744.53;5078086;27;45316;-72
2023/01/10 06:41:35;;;;;;;;;2.67;0.00;;;;;21.28;43.44;101740.91;5077078;28;45486;-72
2023/01/10 06:44:00;;;;;;;;;0.00;0.00;;;;;21.26;44.14;101736.75;5059036;28;48006;-72
2023/01/10 06:46:26;;;;;;;;;2.67;1.67;;;;;21.29;43.85;101750.50;5076700;28;45427;-72
2023/01/10 06:48:51;;;;;;;;;0.33;0.33;;;;;21.28;43.97;101746.19;5076597;28;45780;-72
2023/01/10 06:51:16;;;;;;;;;3.00;0.00;;;;;21.28;44.30;101734.78;5076478;28;45531;-72
2023/01/10 06:53:42;;;;;;;;;0.00;0.00;;;;;21.29;44.13;101733.78;5076633;27;45377;-74
2023/01/10 06:56:09;;;;;;;;;2.33;1.00;;;;;21.29;44.14;101731.13;5077174;28;45368;-72
2023/01/10 06:58:37;;;;;;;;;2.00;0.33;;;;;21.29;44.21;101728.47;5076842;27;45463;-73
2023/01/10 07:01:06;;;;;;;;;1.67;0.00;;;;;21.29;44.25;101729.31;5076616;28;45314;-75
2023/01/10 07:03:32;;;;;;;;;1.67;0.00;;;;;21.30;44.71;101724.84;5077005;27;46319;-72
2023/01/10 07:06:01;;;;;;;;;2.00;0.00;;;;;21.30;44.59;101740.75;5076339;28;45491;-72
2023/01/10 07:08:27;;;;;;;;;0.67;0.67;;;;;21.31;44.41;101733.63;5073421;28;45310;-72
2023/01/10 07:10:52;;;;;;;;;1.00;0.67;;;;;21.31;44.68;101737.13;5076733;28;45289;-71
2023/01/10 07:13:17;;;;;;;;;2.00;1.00;;;;;21.29;44.65;101737.25;5076785;28;46045;-71
2023/01/10 07:15:43;;;;;;;;;0.67;0.00;;;;;21.25;44.75;101738.56;5076784;27;45355;-71
2023/01/10 07:18:08;;;;;;;;;2.00;0.00;;;;;21.25;44.44;101741.22;5077077;28;45352;-71
2023/01/10 07:20:33;;;;;;;;;1.00;0.00;;;;;21.23;44.30;101739.69;5077172;28;45275;-71
2023/01/10 07:23:00;;;;;;;;;0.33;0.00;;;;;21.22;44.84;101748.59;5076948;28;46102;-71
2023/01/10 07:25:27;;;;;;;;;2.00;1.00;;;;;21.21;44.86;101744.31;5077043;28;45426;-71
2023/01/10 07:27:54;;;;;;;;;0.00;0.00;;;;;21.19;44.52;101741.81;5076750;28;45367;-71
2023/01/10 07:30:20;;;;;;;;;1.00;1.00;;;;;21.20;44.71;101740.84;5076693;28;45384;-71
2023/01/10 07:32:52;;;;;;;;;0.00;0.00;;;;;21.20;44.83;101740.84;5076947;28;46365;-71
2023/01/10 07:35:17;;;;;;;;;0.00;0.00;;;;;21.18;44.95;101737.50;5076791;28;45340;-71
2023/01/10 07:37:42;;;;;;;;;1.00;0.00;;;;;21.18;45.13;101733.03;5076652;28;45434;-71
2023/01/10 07:40:09;;;;;;;;;0.00;0.00;;;;;21.17;44.92;101733.19;5077240;28;45342;-71
2023/01/10 07:42:34;;;;;;;;;1.00;0.00;;;;;21.18;44.73;101740.16;5076685;28;45365;-71
2023/01/10 07:44:59;;;;;;;;;1.33;0.33;;;;;21.07;44.71;101728.00;5076365;28;45400;-71
2023/01/10 07:47:24;;;;;;;;;0.33;0.33;;;;;21.17;44.56;101736.69;5076642;28;45276;-71
2023/01/10 07:49:50;;;;;;;;;1.33;0.00;;;;;21.16;44.68;101726.22;5076855;27;45339;-71
2023/01/10 07:52:15;;;;;;;;;0.00;0.00;;;;;21.16;44.62;101728.88;5058527;28;46710;-72
2023/01/10 07:54:40;;;;;;;;;0.00;0.00;;;;;21.14;45.13;101721.09;5076522;28;45456;-72
2023/01/10 07:57:06;;;;;;;;;2.67;0.00;;;;;21.15;45.28;101732.53;5076427;27;45282;-70
2023/01/10 07:59:31;;;;;;;;;1.00;1.00;;;;;21.09;45.10;101707.50;5072310;28;45553;-70
2023/01/10 08:01:56;;;;;;;;;0.33;0.33;;;;;21.17;44.68;101717.31;5074799;28;47906;-70
2023/01/10 08:04:22;;;;;;;;;1.00;1.00;;;;;21.20;45.12;101716.19;5103468;27;45342;-70
2023/01/10 08:06:47;;;;;;;;;1.00;0.33;;;;;21.21;44.89;101717.84;5076200;28;45276;-70
2023/01/10 08:09:12;;;;;;;;;1.00;1.00;;;;;21.21;44.57;101721.31;5074963;28;45340;-70
2023/01/10 08:11:38;;;;;;;;;0.67;0.67;;;;;21.23;44.72;101722.00;5075965;28;46963;-69
2023/01/10 08:14:03;;;;;;;;;0.00;0.00;;;;;21.18;44.53;101706.56;5075629;28;45263;-70
2023/01/10 08:16:28;;;;;;;;;1.33;0.00;;;;;21.25;44.56;101713.91;5076012;28;45315;-70
2023/01/10 08:18:54;;;;;;;;;0.00;0.00;;;;;21.18;44.41;101717.16;5075300;28;45276;-70
2023/01/10 08:21:19;;;;;;;;;1.67;1.67;;;;;21.24;44.77;101713.06;5076015;28;46048;-70
2023/01/10 08:23:44;;;;;;;;;0.00;0.00;;;;;21.22;44.32;101709.75;5076272;28;45275;-70
2023/01/10 08:26:10;;;;;;;;;0.33;0.00;;;;;21.18;44.38;101697.81;5076275;28;45255;-70
2023/01/10 08:28:35;;;;;;;;;1.67;1.00;;;;;21.25;44.36;101716.53;5075579;28;45381;-70
2023/01/10 08:31:08;;;;;;;;;1.00;0.00;;;;;21.26;44.55;101712.94;5075583;28;45438;-72
2023/01/10 08:33:33;;;;;;;;;0.67;0.67;;;;;21.24;44.40;101713.06;5076079;28;45352;-72
2023/01/10 08:35:58;;;;;;;;;0.67;0.67;;;;;21.24;44.49;101704.28;5075976;28;45402;-71
2023/01/10 08:38:24;;;;;;;;;4.00;1.00;;;;;21.23;44.37;101707.94;5075867;28;45575;-71
2023/01/10 08:40:49;;;;;;;;;2.67;1.33;;;;;21.23;44.21;101703.47;5075762;28;46244;-71
2023/01/10 08:43:14;;;;;;;;;0.00;0.00;;;;;21.23;44.54;101697.34;5075413;28;45553;-72
2023/01/10 08:45:40;;;;;;;;;1.00;1.00;;;;;21.21;44.19;101694.84;5075568;28;45275;-71
2023/01/10 08:48:08;;;;;;;;;4.50;1.75;;;;;21.25;44.75;101698.03;5075778;28;45412;-72
2023/01/10 08:50:33;;;;;;;;;2.00;0.00;;;;;21.17;44.35;101682.91;5074981;27;47081;-71
2023/01/10 08:53:00;;;;;;;;;0.00;0.00;;;;;21.17;44.33;101678.44;5075844;28;45301;-71
2023/01/10 08:55:26;;;;;;;;;0.00;0.00;;;;;21.25;44.64;101687.44;5075699;28;45409;-72
2023/01/10 08:57:51;;;;;;;;;1.00;1.00;;;;;21.25;44.75;101677.69;5074840;28;45603;-72
2023/01/10 09:00:17;;;;;;;;;1.67;1.67;;;;;21.16;44.64;101668.84;5075216;28;45248;-72
2023/01/10 09:02:43;;;;;;;;;1.33;0.00;;;;;21.25;44.17;101680.34;5075339;28;45663;-72
2023/01/10 09:05:09;;;;;;;;;1.00;1.00;;;;;21.26;44.69;101676.69;5075619;28;45376;-71
2023/01/10 09:07:34;;;;;;;;;0.50;0.50;;;;;21.25;44.78;101675.03;5075594;28;45336;-72
2023/01/10 09:10:00;;;;;;;;;0.67;0.00;;;;;21.26;44.08;101679.31;5075398;28;45399;-71
2023/01/10 09:15:09;;;;;;;;;1.67;1.00;;;;;21.24;44.30;101664.59;5075495;28;45226;-71
2023/01/10 09:17:35;;;;;;;;;0.00;0.00;;;;;21.23;44.40;101660.28;5075221;28;45284;-72
2023/01/10 09:20:04;;;;;;;;;1.00;0.00;;;;;21.29;44.41;101662.31;5075152;28;46078;-72
2023/01/10 09:22:30;;;;;;;;;0.33;0.33;;;;;21.28;44.22;101658.84;5075190;28;45510;-71
2023/01/10 09:24:56;;;;;;;;;2.00;1.00;;;;;21.28;44.45;101655.38;5075234;28;45355;-72
2023/01/10 09:27:21;;;;;;;;;1.00;1.00;;;;;21.28;44.18;101650.91;5074648;28;45443;-71
2023/01/10 09:29:46;;;;;;;;;0.00;0.00;;;;;21.29;44.43;101649.06;5074974;28;51353;-71
2023/01/10 09:32:11;;;;;;;;;0.00;0.00;;;;;21.30;44.17;101640.16;5078697;28;45795;-72
2023/01/10 09:34:37;;;;;;;;;3.33;2.00;;;;;21.30;44.31;101629.56;5077688;28;45520;-72
2023/01/10 09:37:02;;;;;;;;;0.00;0.00;;;;;21.27;44.27;101614.00;5076553;28;45452;-72
2023/01/10 09:39:28;;;;;;;;;1.67;0.00;;;;;21.31;44.01;101609.22;5078020;28;45323;-72
2023/01/10 09:42:08;;;;;;;;;0.67;0.67;;;;;21.32;43.88;101611.72;5075802;28;45515;-71
2023/01/10 09:45:18;;;;;;;;;0.00;0.00;;;;;21.32;44.28;101605.56;5076499;28;45502;-71
2023/01/10 09:47:53;;;;;;;;;0.67;0.00;;;;;21.33;43.88;101612.53;5074629;28;45419;-72
2023/01/10 09:50:43;;;;;;;;;1.00;1.00;;;;;21.33;44.18;101608.09;5077949;28;45268;-70
2023/01/10 09:53:17;;;;;;;;;2.00;0.00;;;;;21.33;44.32;101610.72;5077814;28;45339;-70
2023/01/10 09:55:49;;;;;;;;;1.00;1.00;;;;;21.27;43.89;101588.38;5077393;28;45371;-72
2023/01/10 09:58:18;;;;;;;;;2.33;1.00;;;;;21.34;43.75;101598.34;5071240;28;45582;-70
2023/01/10 10:00:48;;;;;;;;;2.33;0.00;;;;;21.29;43.66;101583.75;5066513;28;46200;-71
2023/01/10 10:03:51;;;;;;;;;1.00;1.00;;;;;21.33;43.92;101586.91;5076928;28;45395;-72
2023/01/10 10:06:17;;;;;;;;;1.00;1.00;;;;;21.33;43.93;101578.97;5077396;28;45300;-74
2023/01/10 10:08:45;;;;;;;;;0.00;0.00;;;;;21.34;43.91;101579.81;5078176;28;45489;-72
2023/01/10 10:11:26;;;;;;;;;3.00;1.33;;;;;21.34;43.92;101577.97;5077284;27;46239;-73
2023/01/10 10:14:18;;;;;;;;;1.00;1.00;;;;;21.33;44.00;101565.72;5077834;28;45273;-75
2023/01/10 10:16:56;;;;;;;;;1.00;1.00;;;;;21.34;44.25;101562.09;5077125;27;45289;-73
2023/01/10 10:19:25;;;;;;;;;1.67;0.67;;;;;21.34;43.54;101563.94;5077669;28;45413;-71
2023/01/10 10:22:18;;;;;;;;;2.33;1.00;;;;;21.34;43.96;101577.97;5076097;27;46334;-71
2023/01/10 10:25:01;;;;;;;;;1.00;1.00;;;;;21.33;44.30;101581.63;5076814;27;45359;-72
2023/01/10 10:27:48;;;;;;;;;1.00;1.00;;;;;21.34;43.91;101571.88;5077808;28;45520;-71
2023/01/10 10:30:44;;;;;;;;;1.00;1.00;;;;;21.33;43.99;101570.19;5077697;28;45454;-71
2023/01/10 10:33:33;;;;;;;;;4.67;2.00;;;;;21.31;44.00;101553.66;5077060;28;46350;-72
2023/01/10 10:36:23;;;;;;;;;3.67;0.00;;;;;21.32;44.11;101556.13;5077552;28;45313;-70
2023/01/10 10:38:52;;;;;;;;;4.00;1.00;;;;;21.33;44.12;101554.31;5077214;28;45303;-71
2023/01/10 10:41:27;;;;;;;;;2.00;1.67;;;;;21.35;44.30;101541.75;5077636;28;45356;-71
2023/01/10 10:43:53;;;;;;;;;4.00;2.33;;;;;21.36;44.46;101538.97;5076861;28;47350;-71
2023/01/10 10:46:20;;;;;;;;;2.33;1.00;;;;;21.30;44.52;101518.41;5077359;28;45348;-71
2023/01/10 10:48:58;;;;;;;;;1.00;1.00;;;;;21.36;44.16;101517.78;5077301;28;45371;-71
2023/01/10 10:51:37;;;;;;;;;2.33;1.33;;;;;21.38;44.10;101510.50;5077617;28;45215;-71
2023/01/10 10:54:05;;;;;;;;;1.00;1.00;;;;;21.38;44.12;101513.16;5077110;28;47103;-71
2023/01/10 10:56:31;;;;;;;;;1.00;1.00;;;;;21.36;44.52;101496.59;5077320;28;45537;-71
2023/01/10 10:58:58;;;;;;;;;1.00;1.00;;;;;21.42;44.64;101507.53;5077549;28;45293;-71
2023/01/10 11:01:24;;;;;;;;;0.33;0.33;;;;;21.42;44.01;101492.47;5077341;27;45319;-71
2023/01/10 11:04:05;;;;;;;;;4.33;1.33;;;;;21.34;43.68;101477.38;5077244;28;45543;-71
2023/01/10 11:06:34;;;;;;;;;1.00;1.00;;;;;21.40;44.46;101487.34;5077365;28;45450;-70
2023/01/10 11:09:02;;;;;;;;;1.00;1.00;;;;;21.40;44.06;101474.09;5076944;28;45345;-71
2023/01/10 11:11:34;;;;;;;;;1.00;1.00;;;;;21.40;44.04;101490.00;5077315;28;45578;-70
2023/01/10 11:14:02;;;;;;;;;3.00;1.00;;;;;21.39;44.51;101463.69;5077306;28;47306;-71
2023/01/10 11:16:43;;;;;;;;;1.33;1.00;;;;;21.39;44.54;101464.50;5076980;28;45438;-71
2023/01/10 11:19:16;;;;;;;;;3.00;1.00;;;;;21.40;44.23;101454.75;5077041;28;45401;-71
2023/01/10 11:22:01;;;;;;;;;2.00;2.00;;;;;21.38;44.55;101452.25;5076816;28;45347;-70
2023/01/10 11:24:31;;;;;;;;;1.00;1.00;;;;;21.39;44.05;101458.41;5076876;28;46282;-71
2023/01/10 11:27:01;;;;;;;;;1.00;1.00;;;;;21.38;43.99;101444.31;5076773;28;45381;-71
2023/01/10 11:29:38;;;;;;;;;1.67;1.00;;;;;21.37;44.06;101440.00;5077101;28;45313;-70
2023/01/10 11:32:29;;;;;;;;;2.00;2.00;;;;;21.37;43.98;101436.53;5076974;28;45280;-71
2023/01/10 11:35:00;;;;;;;;;0.67;0.67;;;;;21.37;44.09;101426.78;5076952;28;45392;-71
2023/01/10 11:37:31;;;;;;;;;3.00;1.00;;;;;21.37;44.23;101426.78;5076376;28;45371;-71
2023/01/10 11:40:14;;;;;;;;;2.00;2.00;;;;;21.37;44.28;101418.84;5076974;28;45449;-71
2023/01/10 11:42:39;;;;;;;;;2.00;1.00;;;;;21.36;44.32;101414.53;5076841;28;45427;-71
2023/01/10 11:45:25;;;;;;;;;3.00;1.00;;;;;21.36;44.44;101411.06;5076498;27;46120;-71
2023/01/10 11:47:53;;;;;;;;;1.00;1.00;;;;;21.35;43.99;101404.09;5076643;28;45444;-71